sensor_id;sensor_type;location;lat;lon;timestamp;temperature;humidity
7014;DHT22;3547;50.774;12.918;2022-09-09T10:33:13;19.50;1.00
7014;DHT22;3547;50.774;12.918;2022-09-09T10:39:15;19.60;1.00
7014;DHT22;3547;50.774;12.918;2022-09-09T10:44:14;20.00;1.00
7014;DHT22;3547;50.774;12.918;2022-09-09T10:47:01;20.10;1.00
7014;DHT22;3547;50.774;12.918;2022-09-09T10:55:25;20.30;1.00
7014;DHT22;3547;50.774;12.918;2022-09-09T10:57:58;20.10;1.00
7014;DHT22;3547;50.774;12.918;2022-09-09T11:00:44;20.00;1.00
7014;DHT22;3547;50.774;12.918;2022-09-09T11:03:20;19.80;1.00
7014;DHT22;3547;50.774;12.918;2022-09-09T11:05:50;20.10;1.00
7014;DHT22;3547;50.774;12.918;2022-09-09T11:08:19;20.30;1.00
7014;DHT22;3547;50.774;12.918;2022-09-09T11:13:46;20.50;1.00
7014;DHT22;3547;50.774;12.918;2022-09-09T11:18:44;20.80;1.00
7014;DHT22;3547;50.774;12.918;2022-09-09T11:21:21;20.90;1.00
7014;DHT22;3547;50.774;12.918;2022-09-09T11:23:56;20.70;1.00
7014;DHT22;3547;50.774;12.918;2022-09-09T11:26:35;20.60;1.00
7014;DHT22;3547;50.774;12.918;2022-09-09T11:43:26;19.70;1.00
7014;DHT22;3547;50.774;12.918;2022-09-09T11:46:05;19.80;1.00
7014;DHT22;3547;50.774;12.918;2022-09-09T11:48:39;20.10;1.00
7014;DHT22;3547;50.774;12.918;2022-09-09T11:51:13;20.60;1.00
7014;DHT22;3547;50.774;12.918;2022-09-09T11:53:57;20.60;1.00
7014;DHT22;3547;50.774;12.918;2022-09-09T11:56:31;20.90;1.00
7014;DHT22;3547;50.774;12.918;2022-09-09T11:59:06;21.10;1.00
7014;DHT22;3547;50.774;12.918;2022-09-09T12:01:34;20.90;1.00
7014;DHT22;3547;50.774;12.918;2022-09-09T12:04:16;20.80;1.00
7014;DHT22;3547;50.774;12.918;2022-09-09T12:07:19;20.60;1.00
7014;DHT22;3547;50.774;12.918;2022-09-09T12:09:57;20.50;1.00
7014;DHT22;3547;50.774;12.918;2022-09-09T12:14:58;20.50;1.00
7014;DHT22;3547;50.774;12.918;2022-09-09T12:17:29;20.40;1.00
7014;DHT22;3547;50.774;12.918;2022-09-09T12:22:37;20.30;1.00
7014;DHT22;3547;50.774;12.918;2022-09-09T12:28:17;20.50;1.00
7014;DHT22;3547;50.774;12.918;2022-09-09T12:31:12;20.70;1.00
7014;DHT22;3547;50.774;12.918;2022-09-09T12:33:44;21.00;1.00
7014;DHT22;3547;50.774;12.918;2022-09-09T12:36:23;21.10;1.00
7014;DHT22;3547;50.774;12.918;2022-09-09T12:38:50;21.20;1.00
7014;DHT22;3547;50.774;12.918;2022-09-09T12:41:26;21.20;1.00
7014;DHT22;3547;50.774;12.918;2022-09-09T12:44:09;21.30;1.00
7014;DHT22;3547;50.774;12.918;2022-09-09T12:46:39;21.20;1.00
7014;DHT22;3547;50.774;12.918;2022-09-09T12:49:30;21.10;1.00
7014;DHT22;3547;50.774;12.918;2022-09-09T12:52:05;21.20;1.00
7014;DHT22;3547;50.774;12.918;2022-09-09T12:54:36;21.10;1.00
7014;DHT22;3547;50.774;12.918;2022-09-09T12:57:04;21.10;1.00
7014;DHT22;3547;50.774;12.918;2022-09-09T12:59:39;21.00;1.00
7014;DHT22;3547;50.774;12.918;2022-09-09T13:02:25;21.10;1.00
7014;DHT22;3547;50.774;12.918;2022-09-09T13:04:52;21.30;1.00
7014;DHT22;3547;50.774;12.918;2022-09-09T13:07:20;21.60;1.00
7014;DHT22;3547;50.774;12.918;2022-09-09T13:09:48;21.60;1.00
7014;DHT22;3547;50.774;12.918;2022-09-09T13:12:22;21.50;1.00
7014;DHT22;3547;50.774;12.918;2022-09-09T13:14:52;21.20;1.00
7014;DHT22;3547;50.774;12.918;2022-09-09T13:20:47;21.00;1.00
7014;DHT22;3547;50.774;12.918;2022-09-09T13:23:15;20.90;1.00
7014;DHT22;3547;50.774;12.918;2022-09-09T13:25:56;20.80;1.00
7014;DHT22;3547;50.774;12.918;2022-09-09T13:28:25;20.70;1.00
7014;DHT22;3547;50.774;12.918;2022-09-09T13:31:05;20.80;1.00
7014;DHT22;3547;50.774;12.918;2022-09-09T13:33:36;20.90;1.00
7014;DHT22;3547;50.774;12.918;2022-09-09T13:36:08;20.90;1.00
7014;DHT22;3547;50.774;12.918;2022-09-09T13:38:40;21.00;1.00
7014;DHT22;3547;50.774;12.918;2022-09-09T13:41:08;21.10;1.00
7014;DHT22;3547;50.774;12.918;2022-09-09T13:43:38;21.10;1.00
7014;DHT22;3547;50.774;12.918;2022-09-09T13:48:59;21.20;1.00
7014;DHT22;3547;50.774;12.918;2022-09-09T13:51:49;21.10;1.00
7014;DHT22;3547;50.774;12.918;2022-09-09T13:54:19;21.00;1.00
7014;DHT22;3547;50.774;12.918;2022-09-09T13:56:46;21.00;1.00
7014;DHT22;3547;50.774;12.918;2022-09-09T13:59:17;21.50;1.00
7014;DHT22;3547;50.774;12.918;2022-09-09T14:01:46;21.80;1.00
7014;DHT22;3547;50.774;12.918;2022-09-09T14:04:15;22.10;1.00
7014;DHT22;3547;50.774;12.918;2022-09-09T14:06:42;22.20;1.00
7014;DHT22;3547;50.774;12.918;2022-09-09T14:09:14;22.30;1.00
7014;DHT22;3547;50.774;12.918;2022-09-09T14:11:42;22.30;1.00
7014;DHT22;3547;50.774;12.918;2022-09-09T14:14:11;22.30;1.00
7014;DHT22;3547;50.774;12.918;2022-09-09T14:16:38;22.20;1.00
7014;DHT22;3547;50.774;12.918;2022-09-09T14:19:05;22.30;1.00
7014;DHT22;3547;50.774;12.918;2022-09-09T14:21:31;22.30;1.00
7014;DHT22;3547;50.774;12.918;2022-09-09T14:23:58;22.30;1.00
7014;DHT22;3547;50.774;12.918;2022-09-09T14:26:25;22.20;1.00
7014;DHT22;3547;50.774;12.918;2022-09-09T14:28:55;22.20;1.00
7014;DHT22;3547;50.774;12.918;2022-09-09T14:34:48;22.30;1.00
7014;DHT22;3547;50.774;12.918;2022-09-09T14:37:17;22.30;1.00
7014;DHT22;3547;50.774;12.918;2022-09-09T14:39:45;22.60;1.00
7014;DHT22;3547;50.774;12.918;2022-09-09T14:42:23;22.50;1.00
7014;DHT22;3547;50.774;12.918;2022-09-09T14:44:53;22.20;99.90
7014;DHT22;3547;50.774;12.918;2022-09-09T14:47:19;22.00;1.00
7014;DHT22;3547;50.774;12.918;2022-09-09T14:49:45;21.80;1.00
7014;DHT22;3547;50.774;12.918;2022-09-09T14:52:11;21.60;99.90
7014;DHT22;3547;50.774;12.918;2022-09-09T14:54:38;21.40;99.90
7014;DHT22;3547;50.774;12.918;2022-09-09T14:57:05;21.30;99.90
7014;DHT22;3547;50.774;12.918;2022-09-09T14:59:31;21.10;99.90
7014;DHT22;3547;50.774;12.918;2022-09-09T15:01:57;20.90;99.90
7014;DHT22;3547;50.774;12.918;2022-09-09T15:04:24;20.80;99.90
7014;DHT22;3547;50.774;12.918;2022-09-09T15:06:50;20.60;99.90
7014;DHT22;3547;50.774;12.918;2022-09-09T15:09:19;20.40;99.90
7014;DHT22;3547;50.774;12.918;2022-09-09T15:11:45;20.20;99.90
7014;DHT22;3547;50.774;12.918;2022-09-09T15:14:11;20.10;99.90
7014;DHT22;3547;50.774;12.918;2022-09-09T15:16:39;19.90;1.00
7014;DHT22;3547;50.774;12.918;2022-09-09T15:19:08;19.90;1.00
7014;DHT22;3547;50.774;12.918;2022-09-09T15:21:38;19.70;1.00
7014;DHT22;3547;50.774;12.918;2022-09-09T15:24:05;19.60;1.00
7014;DHT22;3547;50.774;12.918;2022-09-09T15:26:33;19.60;1.00
7014;DHT22;3547;50.774;12.918;2022-09-09T15:28:59;19.50;1.00
7014;DHT22;3547;50.774;12.918;2022-09-09T15:31:28;19.40;1.00
7014;DHT22;3547;50.774;12.918;2022-09-09T15:34:00;19.40;1.00
7014;DHT22;3547;50.774;12.918;2022-09-09T15:36:34;19.40;99.90
7014;DHT22;3547;50.774;12.918;2022-09-09T15:39:02;19.30;99.90
7014;DHT22;3547;50.774;12.918;2022-09-09T15:41:29;19.20;99.90
7014;DHT22;3547;50.774;12.918;2022-09-09T15:43:57;19.20;99.90
7014;DHT22;3547;50.774;12.918;2022-09-09T15:46:30;19.20;1.00
7014;DHT22;3547;50.774;12.918;2022-09-09T15:49:12;19.20;1.00
7014;DHT22;3547;50.774;12.918;2022-09-09T15:51:40;19.20;99.90
7014;DHT22;3547;50.774;12.918;2022-09-09T15:54:15;19.50;1.00
7014;DHT22;3547;50.774;12.918;2022-09-09T15:56:52;19.90;1.00
7014;DHT22;3547;50.774;12.918;2022-09-09T15:59:21;21.10;1.00
7014;DHT22;3547;50.774;12.918;2022-09-09T16:01:48;22.50;1.00
7014;DHT22;3547;50.774;12.918;2022-09-09T16:04:18;23.10;1.00
7014;DHT22;3547;50.774;12.918;2022-09-09T16:06:51;24.40;1.00
7014;DHT22;3547;50.774;12.918;2022-09-09T16:09:21;25.10;99.90
7014;DHT22;3547;50.774;12.918;2022-09-09T16:15:20;26.30;99.90
7014;DHT22;3547;50.774;12.918;2022-09-09T16:17:58;26.50;99.90
7014;DHT22;3547;50.774;12.918;2022-09-09T16:20:25;27.70;99.90
7014;DHT22;3547;50.774;12.918;2022-09-09T16:22:51;28.90;99.90
7014;DHT22;3547;50.774;12.918;2022-09-09T16:25:18;28.40;99.90
7014;DHT22;3547;50.774;12.918;2022-09-09T16:57:51;21.00;98.10
7014;DHT22;3547;50.774;12.918;2022-09-09T17:00:24;21.00;99.90
7014;DHT22;3547;50.774;12.918;2022-09-09T17:02:53;20.80;99.90
7014;DHT22;3547;50.774;12.918;2022-09-09T17:05:22;20.60;99.90
7014;DHT22;3547;50.774;12.918;2022-09-09T17:29:32;19.20;99.90
7014;DHT22;3547;50.774;12.918;2022-09-09T17:53:08;18.00;99.90
7014;DHT22;3547;50.774;12.918;2022-09-09T17:56:02;17.80;99.90
7014;DHT22;3547;50.774;12.918;2022-09-09T18:04:05;17.60;99.90
7014;DHT22;3547;50.774;12.918;2022-09-09T18:06:43;17.60;99.90
7014;DHT22;3547;50.774;12.918;2022-09-09T18:09:17;17.50;99.90
7014;DHT22;3547;50.774;12.918;2022-09-09T18:11:48;17.50;99.90
7014;DHT22;3547;50.774;12.918;2022-09-09T18:14:20;17.40;99.90
7014;DHT22;3547;50.774;12.918;2022-09-09T18:16:47;17.40;99.90
7014;DHT22;3547;50.774;12.918;2022-09-09T18:19:16;17.30;99.90
7014;DHT22;3547;50.774;12.918;2022-09-09T18:21:44;17.20;99.90
7014;DHT22;3547;50.774;12.918;2022-09-09T18:24:15;17.20;99.90
7014;DHT22;3547;50.774;12.918;2022-09-09T18:26:43;17.10;99.90
7014;DHT22;3547;50.774;12.918;2022-09-09T18:29:13;17.10;99.90
7014;DHT22;3547;50.774;12.918;2022-09-09T18:31:40;17.00;99.90
7014;DHT22;3547;50.774;12.918;2022-09-09T18:34:11;16.80;99.90
7014;DHT22;3547;50.774;12.918;2022-09-09T18:36:48;16.80;99.90
7014;DHT22;3547;50.774;12.918;2022-09-09T18:39:20;16.80;99.90
7014;DHT22;3547;50.774;12.918;2022-09-09T18:41:48;16.80;99.90
7014;DHT22;3547;50.774;12.918;2022-09-09T18:44:19;16.70;99.90
7014;DHT22;3547;50.774;12.918;2022-09-09T18:46:52;16.70;99.90
7014;DHT22;3547;50.774;12.918;2022-09-09T18:49:20;16.50;99.90
7014;DHT22;3547;50.774;12.918;2022-09-09T18:51:47;16.50;99.90
7014;DHT22;3547;50.774;12.918;2022-09-09T19:02:55;16.40;99.90
7014;DHT22;3547;50.774;12.918;2022-09-09T19:05:21;16.30;99.90
7014;DHT22;3547;50.774;12.918;2022-09-09T19:07:48;16.30;99.90
7014;DHT22;3547;50.774;12.918;2022-09-09T19:10:18;16.30;99.90
7014;DHT22;3547;50.774;12.918;2022-09-09T19:12:47;16.30;99.90
7014;DHT22;3547;50.774;12.918;2022-09-09T19:15:14;16.20;99.90
7014;DHT22;3547;50.774;12.918;2022-09-09T19:17:43;16.10;99.90
7014;DHT22;3547;50.774;12.918;2022-09-09T19:20:13;16.10;99.90
7014;DHT22;3547;50.774;12.918;2022-09-09T19:25:28;16.00;99.90
7014;DHT22;3547;50.774;12.918;2022-09-09T19:28:03;16.10;99.90
7014;DHT22;3547;50.774;12.918;2022-09-09T19:41:56;16.00;99.90
7014;DHT22;3547;50.774;12.918;2022-09-09T19:44:36;16.00;99.90
7014;DHT22;3547;50.774;12.918;2022-09-09T19:47:28;16.00;99.90
7014;DHT22;3547;50.774;12.918;2022-09-09T19:49:58;15.90;99.90
